sensor_id;sensor_type;location;lat;lon;timestamp;pressure;altitude;pressure_sealevel;temperature;humidity
22862;BME280;11598;50.652;6.172;2023-03-21T00:04:44;96569.44;;;6.90;92.24
22862;BME280;11598;50.652;6.172;2023-03-21T00:14:45;96564.53;;;6.86;92.27
22862;BME280;11598;50.652;6.172;2023-03-21T00:24:46;96556.59;;;6.89;92.73
22862;BME280;11598;50.652;6.172;2023-03-21T00:34:47;96548.97;;;6.87;92.94
22862;BME280;11598;50.652;6.172;2023-03-21T00:44:49;96541.31;;;6.86;93.30
22862;BME280;11598;50.652;6.172;2023-03-21T00:54:49;96526.56;;;6.88;93.43
22862;BME280;11598;50.652;6.172;2023-03-21T01:04:50;96516.22;;;6.88;93.81
22862;BME280;11598;50.652;6.172;2023-03-21T01:14:50;96502.66;;;6.84;94.13
22862;BME280;11598;50.652;6.172;2023-03-21T01:24:50;96497.47;;;6.70;94.09
22862;BME280;11598;50.652;6.172;2023-03-21T01:34:51;96485.34;;;6.56;94.54
22862;BME280;11598;50.652;6.172;2023-03-21T01:54:53;96461.78;;;6.32;95.49
22862;BME280;11598;50.652;6.172;2023-03-21T02:04:55;96453.72;;;6.38;96.03
22862;BME280;11598;50.652;6.172;2023-03-21T02:14:57;96448.09;;;6.46;96.08
22862;BME280;11598;50.652;6.172;2023-03-21T02:45:28;96418.63;;;6.50;95.82
22862;BME280;11598;50.652;6.172;2023-03-21T02:55:33;96415.28;;;6.48;95.86
22862;BME280;11598;50.652;6.172;2023-03-21T03:05:49;96401.28;;;6.52;96.16
22862;BME280;11598;50.652;6.172;2023-03-21T03:26:27;96385.81;;;6.66;95.87
22862;BME280;11598;50.652;6.172;2023-03-21T03:36:33;96385.81;;;6.66;95.95
22862;BME280;11598;50.652;6.172;2023-03-21T03:46:51;96376.03;;;6.57;96.73
22862;BME280;11598;50.652;6.172;2023-03-21T03:56:53;96371.22;;;6.51;97.50
22862;BME280;11598;50.652;6.172;2023-03-21T04:06:54;96368.00;;;6.47;97.97
22862;BME280;11598;50.652;6.172;2023-03-21T04:16:55;96364.69;;;6.45;98.48
22862;BME280;11598;50.652;6.172;2023-03-21T04:26:55;96370.13;;;6.41;98.80
22862;BME280;11598;50.652;6.172;2023-03-21T04:36:56;96361.91;;;6.34;99.10
22862;BME280;11598;50.652;6.172;2023-03-21T04:46:56;96357.50;;;6.36;99.34
22862;BME280;11598;50.652;6.172;2023-03-21T04:56:57;96353.16;;;6.37;99.65
22862;BME280;11598;50.652;6.172;2023-03-21T05:06:57;96352.34;;;6.36;100.00
22862;BME280;11598;50.652;6.172;2023-03-21T05:16:58;96353.53;;;6.45;100.00
22862;BME280;11598;50.652;6.172;2023-03-21T05:27:00;96361.44;;;6.56;100.00
22862;BME280;11598;50.652;6.172;2023-03-21T05:37:02;96370.69;;;6.60;100.00
22862;BME280;11598;50.652;6.172;2023-03-21T05:47:03;96370.94;;;6.55;100.00
22862;BME280;11598;50.652;6.172;2023-03-21T05:57:06;96384.78;;;6.40;100.00
22862;BME280;11598;50.652;6.172;2023-03-21T06:07:06;96373.78;;;6.22;100.00
22862;BME280;11598;50.652;6.172;2023-03-21T06:17:06;96365.94;;;6.09;100.00
22862;BME280;11598;50.652;6.172;2023-03-21T06:27:07;96361.69;;;6.08;100.00
22862;BME280;11598;50.652;6.172;2023-03-21T06:37:07;96357.06;;;6.13;100.00
22862;BME280;11598;50.652;6.172;2023-03-21T06:47:08;96361.63;;;6.24;100.00
22862;BME280;11598;50.652;6.172;2023-03-21T06:57:08;96359.13;;;6.37;100.00
22862;BME280;11598;50.652;6.172;2023-03-21T07:07:09;96347.44;;;6.46;100.00
22862;BME280;11598;50.652;6.172;2023-03-21T07:17:09;96349.94;;;6.47;100.00
22862;BME280;11598;50.652;6.172;2023-03-21T07:27:10;96351.25;;;6.54;100.00
22862;BME280;11598;50.652;6.172;2023-03-21T07:37:10;96347.63;;;6.57;100.00
22862;BME280;11598;50.652;6.172;2023-03-21T07:47:10;96352.13;;;6.53;100.00
22862;BME280;11598;50.652;6.172;2023-03-21T07:57:11;96355.31;;;6.59;100.00
22862;BME280;11598;50.652;6.172;2023-03-21T08:07:11;96350.28;;;6.70;100.00
22862;BME280;11598;50.652;6.172;2023-03-21T08:17:12;96346.22;;;7.09;100.00
22862;BME280;11598;50.652;6.172;2023-03-21T08:27:12;96349.81;;;7.33;100.00
22862;BME280;11598;50.652;6.172;2023-03-21T08:37:13;96357.25;;;7.52;100.00
22862;BME280;11598;50.652;6.172;2023-03-21T08:47:13;96358.84;;;7.68;100.00
22862;BME280;11598;50.652;6.172;2023-03-21T08:57:14;96349.63;;;7.63;100.00
22862;BME280;11598;50.652;6.172;2023-03-21T09:07:15;96344.06;;;7.70;100.00
22862;BME280;11598;50.652;6.172;2023-03-21T09:17:17;96334.47;;;7.84;100.00
22862;BME280;11598;50.652;6.172;2023-03-21T09:27:18;96327.66;;;7.83;100.00
22862;BME280;11598;50.652;6.172;2023-03-21T09:37:22;96307.44;;;7.76;100.00
22862;BME280;11598;50.652;6.172;2023-03-21T09:47:24;96314.03;;;8.07;100.00
22862;BME280;11598;50.652;6.172;2023-03-21T09:57:41;96295.63;;;8.37;98.30
22862;BME280;11598;50.652;6.172;2023-03-21T10:07:51;96291.66;;;8.32;97.35
22862;BME280;11598;50.652;6.172;2023-03-21T10:17:59;96282.03;;;8.34;96.87
22862;BME280;11598;50.652;6.172;2023-03-21T10:28:00;96273.34;;;8.60;94.99
22862;BME280;11598;50.652;6.172;2023-03-21T10:38:03;96244.56;;;8.52;93.75
22862;BME280;11598;50.652;6.172;2023-03-21T10:48:06;96230.50;;;8.43;93.68
22862;BME280;11598;50.652;6.172;2023-03-21T10:58:12;96210.06;;;8.39;92.58
22862;BME280;11598;50.652;6.172;2023-03-21T11:08:18;96202.97;;;8.17;92.23
22862;BME280;11598;50.652;6.172;2023-03-21T11:18:21;96210.53;;;7.94;94.33
22862;BME280;11598;50.652;6.172;2023-03-21T11:28:23;96203.50;;;7.96;96.55
22862;BME280;11598;50.652;6.172;2023-03-21T11:38:28;96212.72;;;8.00;96.94
22862;BME280;11598;50.652;6.172;2023-03-21T11:48:43;96224.16;;;8.35;98.39
22862;BME280;11598;50.652;6.172;2023-03-21T12:29:48;96188.78;;;9.67;91.03
22862;BME280;11598;50.652;6.172;2023-03-21T12:39:56;96172.66;;;9.86;88.05
22862;BME280;11598;50.652;6.172;2023-03-21T12:50:12;96176.78;;;10.22;87.13
22862;BME280;11598;50.652;6.172;2023-03-21T13:00:17;96162.38;;;10.63;84.58
22862;BME280;11598;50.652;6.172;2023-03-21T13:10:20;96160.31;;;10.78;83.52
22862;BME280;11598;50.652;6.172;2023-03-21T13:20:28;96139.28;;;10.81;82.65
22862;BME280;11598;50.652;6.172;2023-03-21T13:30:32;96125.91;;;10.86;81.43
22862;BME280;11598;50.652;6.172;2023-03-21T13:40:47;96112.09;;;10.85;80.89
22862;BME280;11598;50.652;6.172;2023-03-21T13:50:52;96114.63;;;11.08;80.22
22862;BME280;11598;50.652;6.172;2023-03-21T14:01:30;96122.84;;;11.13;78.36
22862;BME280;11598;50.652;6.172;2023-03-21T14:11:32;96113.28;;;11.13;76.88
22862;BME280;11598;50.652;6.172;2023-03-21T14:21:34;96119.41;;;11.33;75.46
22862;BME280;11598;50.652;6.172;2023-03-21T14:31:35;96113.34;;;11.44;73.81
22862;BME280;11598;50.652;6.172;2023-03-21T14:41:45;96123.03;;;11.42;73.17
22862;BME280;11598;50.652;6.172;2023-03-21T14:51:46;96102.75;;;11.36;72.09
22862;BME280;11598;50.652;6.172;2023-03-21T15:01:48;96092.28;;;10.84;70.54
22862;BME280;11598;50.652;6.172;2023-03-21T15:11:51;96077.91;;;10.69;71.42
22862;BME280;11598;50.652;6.172;2023-03-21T15:21:55;96059.41;;;10.83;71.65
22862;BME280;11598;50.652;6.172;2023-03-21T15:31:57;96065.28;;;10.64;71.69
22862;BME280;11598;50.652;6.172;2023-03-21T15:42:22;96066.53;;;10.49;73.60
22862;BME280;11598;50.652;6.172;2023-03-21T15:52:23;96070.34;;;10.33;73.38
22862;BME280;11598;50.652;6.172;2023-03-21T16:02:28;96066.44;;;10.28;74.24
22862;BME280;11598;50.652;6.172;2023-03-21T16:12:29;96076.25;;;10.13;74.30
22862;BME280;11598;50.652;6.172;2023-03-21T16:22:30;96077.41;;;10.20;75.08
22862;BME280;11598;50.652;6.172;2023-03-21T16:32:33;96064.44;;;10.31;74.52
22862;BME280;11598;50.652;6.172;2023-03-21T16:42:34;96069.78;;;10.19;75.28
22862;BME280;11598;50.652;6.172;2023-03-21T16:52:34;96077.91;;;10.14;75.54
22862;BME280;11598;50.652;6.172;2023-03-21T17:02:35;96091.97;;;10.00;75.55
22862;BME280;11598;50.652;6.172;2023-03-21T17:12:36;96098.34;;;9.85;76.18
22862;BME280;11598;50.652;6.172;2023-03-21T17:22:36;96120.03;;;9.72;76.57
22862;BME280;11598;50.652;6.172;2023-03-21T17:32:36;96127.59;;;9.64;77.23
22862;BME280;11598;50.652;6.172;2023-03-21T17:42:37;96136.06;;;9.55;77.83
22862;BME280;11598;50.652;6.172;2023-03-21T17:52:39;96123.66;;;9.47;78.26
22862;BME280;11598;50.652;6.172;2023-03-21T18:02:39;96103.59;;;9.38;78.47
22862;BME280;11598;50.652;6.172;2023-03-21T18:12:40;96105.97;;;9.30;79.09
22862;BME280;11598;50.652;6.172;2023-03-21T18:22:42;96117.50;;;9.26;79.55
22862;BME280;11598;50.652;6.172;2023-03-21T18:32:43;96119.72;;;9.19;80.18
22862;BME280;11598;50.652;6.172;2023-03-21T18:42:43;96114.06;;;9.14;80.59
22862;BME280;11598;50.652;6.172;2023-03-21T18:52:44;96120.53;;;9.08;81.10
22862;BME280;11598;50.652;6.172;2023-03-21T19:02:47;96122.72;;;9.02;82.06
22862;BME280;11598;50.652;6.172;2023-03-21T19:12:49;96125.91;;;8.94;83.10
22862;BME280;11598;50.652;6.172;2023-03-21T19:22:50;96118.22;;;8.93;83.61
22862;BME280;11598;50.652;6.172;2023-03-21T19:32:51;96124.91;;;8.84;84.20
22862;BME280;11598;50.652;6.172;2023-03-21T19:42:51;96123.50;;;8.80;85.35
22862;BME280;11598;50.652;6.172;2023-03-21T19:52:52;96110.53;;;8.80;85.92
22862;BME280;11598;50.652;6.172;2023-03-21T20:02:52;96114.03;;;8.79;86.69
22862;BME280;11598;50.652;6.172;2023-03-21T20:12:53;96102.44;;;8.60;87.57
22862;BME280;11598;50.652;6.172;2023-03-21T20:22:54;96103.78;;;8.29;88.60
22862;BME280;11598;50.652;6.172;2023-03-21T20:32:57;96092.75;;;8.01;89.94
22862;BME280;11598;50.652;6.172;2023-03-21T20:42:59;96076.28;;;7.78;91.34
22862;BME280;11598;50.652;6.172;2023-03-21T20:53:01;96076.59;;;7.61;92.27
22862;BME280;11598;50.652;6.172;2023-03-21T21:03:02;96074.13;;;7.47;92.82
22862;BME280;11598;50.652;6.172;2023-03-21T21:13:03;96067.22;;;7.34;93.51
22862;BME280;11598;50.652;6.172;2023-03-21T21:23:03;96074.13;;;7.21;94.18
22862;BME280;11598;50.652;6.172;2023-03-21T21:44:26;96061.94;;;6.97;95.78
22862;BME280;11598;50.652;6.172;2023-03-21T21:54:54;96071.44;;;6.97;96.37
22862;BME280;11598;50.652;6.172;2023-03-21T22:05:06;96057.06;;;6.93;97.27
22862;BME280;11598;50.652;6.172;2023-03-21T22:15:14;96057.81;;;6.95;98.18
22862;BME280;11598;50.652;6.172;2023-03-21T22:25:29;96049.09;;;6.96;99.57
22862;BME280;11598;50.652;6.172;2023-03-21T22:35:36;96048.09;;;6.98;100.00
22862;BME280;11598;50.652;6.172;2023-03-21T22:45:36;96053.78;;;7.04;100.00
22862;BME280;11598;50.652;6.172;2023-03-21T22:55:37;96043.75;;;7.12;100.00
22862;BME280;11598;50.652;6.172;2023-03-21T23:05:41;96045.72;;;7.21;100.00
22862;BME280;11598;50.652;6.172;2023-03-21T23:15:41;96038.59;;;7.25;100.00
22862;BME280;11598;50.652;6.172;2023-03-21T23:25:42;96042.81;;;7.26;100.00
22862;BME280;11598;50.652;6.172;2023-03-21T23:35:42;96039.72;;;7.20;100.00
22862;BME280;11598;50.652;6.172;2023-03-21T23:45:42;96026.06;;;7.31;100.00
22862;BME280;11598;50.652;6.172;2023-03-21T23:55:43;96026.88;;;7.45;100.00
